Ana Sayfa
METAR-TAF:

METAR-TAF

Havaalanları :

Rodos Diagoras Uluslararası Havalimanı

Rodos, Yunanistan

Enlem: 36-24N, Boylam: 028-05E, yükseklik: 4 m

Güncel hava durumu gözlemi

Rapor saat 08:20 UTC de 25 dakika önce yapıldı.
Rüzgar kuzeydoğudan 7 kt
Sıcaklık 14°C
Nem 55%
Basınç 1017 hPa
Görüş mesafesi 10 km veya daha fazla
2000 ft yükseklikte az bulutlu

METAR: LGRP 230820Z 04007KT 9999 FEW020 14/05 Q1017 NOSIG

Saat: 10:45 (08:45 UTC)

Tahmin

Rapor saat 05:00 UTC de 3 saat ve 45 dakika önce yapıldı.
Ayın 23'si saat 06 UTC'den ayın 24'si saat 06 UTC'ye kadar geçerli Tahmin
Rüzgar doğudan 8 kt
Görüş mesafesi 10 km veya daha fazla
1800 ft yükseklikte az bulutlu
Dönüşüyor
ayın 23'si saat 21 UTC'den ayın 23'si saat 23 UTC'ye kadar
Rüzgar batı/güneybatıdan 10 kt

TAF: LGRP 230500Z 2306/2406 10008KT 9999 FEW018 BECMG 2321/2323 25010KT

4.000'den fazla havaalanı için hava durumu gözlemleri ve tahminleri (METAR ve TAF raporları).

Kullanılabilir istasyonlar harita üzerinde sarı ve kırmızı noktalarla gösterilir.

İstasyonun adını görmek için fareyi noktanın üzerinde gezdirin.

Sonrasında hava gözlem ve tahminlerini görmek için tıklayın.

Haritayı değiştirmek için: yaklaştırmak için siyah artı işaretli yeşil düğmeye ve uzaklaştırmak için de eksi işaretli düğmeye hızla tıklayın; bitişik haritalar için yeşil okları kullanın.


METAR-TAF: